createdAt,value
2022-07-26T00:02:00.706Z,18.74
2022-07-26T00:04:29.146Z,18.71
2022-07-26T00:06:57.364Z,18.68
2022-07-26T00:09:25.228Z,18.64
2022-07-26T00:11:53.125Z,18.62
2022-07-26T00:14:20.921Z,18.58
2022-07-26T00:16:50.198Z,18.57
2022-07-26T00:19:18.224Z,18.55
2022-07-26T00:21:46.003Z,18.54
2022-07-26T00:24:13.863Z,18.53
2022-07-26T00:26:41.724Z,18.52
2022-07-26T00:29:09.770Z,18.53
2022-07-26T00:31:37.774Z,18.52
2022-07-26T00:34:06.981Z,18.53
2022-07-26T00:36:34.743Z,18.53
2022-07-26T00:39:04.012Z,18.53
2022-07-26T00:41:31.792Z,18.54
2022-07-26T00:44:01.767Z,18.53
2022-07-26T00:46:30.327Z,18.50
2022-07-26T00:48:58.539Z,18.50
2022-07-26T00:51:27.767Z,18.51
2022-07-26T00:53:55.836Z,18.51
2022-07-26T00:56:23.910Z,18.52
2022-07-26T00:58:51.705Z,18.51
2022-07-26T01:01:19.675Z,18.51
2022-07-26T01:03:51.251Z,18.48
2022-07-26T01:06:20.921Z,18.49
2022-07-26T01:08:53.145Z,18.46
2022-07-26T01:11:20.963Z,18.45
2022-07-26T01:13:50.152Z,18.44
2022-07-26T01:16:18.715Z,18.42
2022-07-26T01:18:46.555Z,18.42
2022-07-26T01:21:14.538Z,18.42
2022-07-26T01:23:44.694Z,18.42
2022-07-26T01:26:12.704Z,18.41
2022-07-26T01:28:42.720Z,18.41
2022-07-26T01:31:10.673Z,18.37
2022-07-26T01:33:38.585Z,18.31
2022-07-26T01:36:07.104Z,18.24
2022-07-26T01:38:34.889Z,18.17
2022-07-26T01:41:04.048Z,18.09
2022-07-26T01:43:31.877Z,18.02
2022-07-26T01:45:59.797Z,17.96
2022-07-26T01:48:27.699Z,17.93
2022-07-26T01:50:55.584Z,17.90
2022-07-26T01:53:23.485Z,17.88
2022-07-26T01:55:51.316Z,17.86
2022-07-26T01:58:20.641Z,17.84
2022-07-26T02:00:49.075Z,17.81
2022-07-26T02:03:16.962Z,17.81
2022-07-26T02:05:44.886Z,17.79
2022-07-26T02:08:12.819Z,17.79
2022-07-26T02:10:58.276Z,17.77
2022-07-26T02:13:28.038Z,17.72
2022-07-26T02:15:55.902Z,17.67
2022-07-26T02:18:23.704Z,17.65
2022-07-26T02:20:52.121Z,17.64
2022-07-26T02:23:20.297Z,17.62
2022-07-26T02:25:48.166Z,17.57
2022-07-26T02:28:16.662Z,17.55
2022-07-26T02:30:46.996Z,17.52
2022-07-26T02:33:15.356Z,17.50
2022-07-26T02:35:44.152Z,17.48
2022-07-26T02:38:14.981Z,17.49
2022-07-26T02:40:44.051Z,17.45
2022-07-26T02:43:12.409Z,17.46
2022-07-26T02:45:40.304Z,17.44
2022-07-26T02:48:09.624Z,17.41
2022-07-26T02:50:37.452Z,17.37
2022-07-26T02:53:05.400Z,17.36
2022-07-26T02:55:33.184Z,17.34
2022-07-26T02:58:00.983Z,17.33
2022-07-26T03:00:29.034Z,17.33
2022-07-26T03:02:57.647Z,17.32
2022-07-26T03:05:27.006Z,17.33
2022-07-26T03:07:54.738Z,17.31
2022-07-26T03:10:22.531Z,17.31
2022-07-26T03:12:50.297Z,17.31
2022-07-26T03:15:18.204Z,17.32
2022-07-26T03:17:46.003Z,17.30
2022-07-26T03:20:14.336Z,17.29
2022-07-26T03:22:43.716Z,17.26
2022-07-26T03:25:11.495Z,17.22
2022-07-26T03:27:39.319Z,17.22
2022-07-26T03:30:08.589Z,17.22
2022-07-26T03:32:38.521Z,17.22
2022-07-26T03:35:06.920Z,17.21
2022-07-26T03:37:46.156Z,17.21
2022-07-26T03:40:16.425Z,17.18
2022-07-26T03:42:44.474Z,17.19
2022-07-26T03:45:13.918Z,17.19
2022-07-26T03:47:41.806Z,17.19
2022-07-26T03:50:11.018Z,17.17
2022-07-26T03:52:38.958Z,17.14
2022-07-26T03:55:21.850Z,17.15
2022-07-26T03:57:50.976Z,17.14
2022-07-26T04:00:19.328Z,17.13
2022-07-26T04:02:47.197Z,17.11
2022-07-26T04:05:15.067Z,17.11
2022-07-26T04:07:43.709Z,17.09
2022-07-26T04:10:21.357Z,17.05
2022-07-26T04:12:51.270Z,17.04
2022-07-26T04:15:20.978Z,17.01
2022-07-26T04:17:49.228Z,16.99
2022-07-26T04:20:17.327Z,16.97
2022-07-26T04:22:45.196Z,16.97
2022-07-26T04:25:13.299Z,16.97
2022-07-26T04:27:41.069Z,16.95
2022-07-26T04:30:15.164Z,16.94
2022-07-26T04:32:43.928Z,16.92
2022-07-26T04:35:13.641Z,16.89
2022-07-26T04:37:42.637Z,16.87
2022-07-26T04:40:12.998Z,16.86
2022-07-26T04:42:40.991Z,16.84
2022-07-26T04:45:12.731Z,16.81
2022-07-26T04:47:42.490Z,16.78
2022-07-26T04:50:11.491Z,16.77
2022-07-26T04:52:39.301Z,16.78
2022-07-26T04:55:08.243Z,16.81
2022-07-26T04:57:36.438Z,16.82
2022-07-26T05:00:23.485Z,16.85
2022-07-26T05:02:55.047Z,16.89
2022-07-26T05:05:24.030Z,16.88
2022-07-26T05:07:53.553Z,16.89
2022-07-26T05:10:22.588Z,16.91
2022-07-26T05:12:50.416Z,16.93
2022-07-26T05:15:18.174Z,16.97
2022-07-26T05:17:46.073Z,17.00
2022-07-26T05:20:16.990Z,17.04
2022-07-26T05:22:45.945Z,17.05
2022-07-26T05:25:13.976Z,17.08
2022-07-26T05:27:41.858Z,17.13
2022-07-26T05:30:11.300Z,17.17
2022-07-26T05:32:39.248Z,17.21
2022-07-26T05:35:08.060Z,17.23
2022-07-26T05:37:37.292Z,17.24
2022-07-26T05:40:06.505Z,17.23
2022-07-26T05:42:34.453Z,17.21
2022-07-26T05:45:02.193Z,17.19
2022-07-26T05:47:30.396Z,17.19
2022-07-26T05:49:58.152Z,17.21
2022-07-26T05:52:25.936Z,17.20
2022-07-26T05:54:55.101Z,17.22
2022-07-26T05:57:23.057Z,17.23
2022-07-26T05:59:51.060Z,17.27
2022-07-26T06:02:18.909Z,17.30
2022-07-26T06:04:47.667Z,17.29
2022-07-26T06:07:15.889Z,17.28
2022-07-26T06:09:43.810Z,17.27
2022-07-26T06:12:13.020Z,17.25
2022-07-26T06:14:40.836Z,17.27
2022-07-26T06:17:09.005Z,17.32
2022-07-26T06:19:36.881Z,17.33
2022-07-26T06:22:04.901Z,17.37
2022-07-26T06:24:32.722Z,17.44
2022-07-26T06:27:05.037Z,17.47
2022-07-26T06:29:34.908Z,17.55
2022-07-26T06:32:02.785Z,17.64
2022-07-26T06:34:30.665Z,17.73
2022-07-26T06:36:58.553Z,17.78
2022-07-26T06:39:26.327Z,17.86
2022-07-26T06:41:54.079Z,17.94
2022-07-26T06:44:23.860Z,17.98
2022-07-26T06:46:52.951Z,18.03
2022-07-26T06:49:22.720Z,18.05
2022-07-26T06:51:51.151Z,18.10
2022-07-26T06:54:18.871Z,18.16
2022-07-26T06:56:46.667Z,18.23
2022-07-26T06:59:14.392Z,18.37
2022-07-26T07:01:55.524Z,18.65
2022-07-26T07:04:30.719Z,18.90
2022-07-26T07:07:05.360Z,19.13
2022-07-26T07:09:34.488Z,19.39
2022-07-26T07:12:09.887Z,19.58
2022-07-26T07:14:38.619Z,19.65
2022-07-26T07:17:10.756Z,19.74
2022-07-26T07:19:43.231Z,19.84
2022-07-26T07:22:12.308Z,20.08
2022-07-26T07:24:41.013Z,20.35
2022-07-26T07:27:09.252Z,20.67
2022-07-26T07:29:38.552Z,21.22
2022-07-26T07:32:09.041Z,21.52
2022-07-26T07:34:47.678Z,21.73
2022-07-26T07:37:15.857Z,22.08
2022-07-26T07:39:43.771Z,22.23
2022-07-26T07:42:11.563Z,22.36
2022-07-26T07:44:39.373Z,22.34
2022-07-26T07:47:08.932Z,22.34
2022-07-26T07:49:37.150Z,22.35
2022-07-26T07:52:06.770Z,22.31
2022-07-26T07:54:34.534Z,22.31
2022-07-26T07:57:03.210Z,22.31
2022-07-26T07:59:31.797Z,22.36
2022-07-26T08:01:59.944Z,22.34
2022-07-26T08:04:27.819Z,22.31
2022-07-26T08:06:56.132Z,22.32
2022-07-26T08:09:28.725Z,22.33
2022-07-26T08:11:56.745Z,22.38
2022-07-26T08:14:24.566Z,22.50
2022-07-26T08:16:52.652Z,22.80
2022-07-26T08:19:20.686Z,23.05
2022-07-26T08:21:50.384Z,23.19
2022-07-26T08:24:18.154Z,23.35
2022-07-26T08:26:47.337Z,23.55
2022-07-26T08:29:15.359Z,23.76
2022-07-26T08:31:43.463Z,23.74
2022-07-26T08:34:11.348Z,23.84
2022-07-26T08:36:49.603Z,24.06
2022-07-26T08:39:26.915Z,24.13
2022-07-26T08:41:56.127Z,24.17
2022-07-26T08:44:23.961Z,24.19
2022-07-26T08:46:51.852Z,24.09
2022-07-26T08:49:19.756Z,23.99
2022-07-26T08:51:47.628Z,23.79
2022-07-26T08:54:16.686Z,23.68
2022-07-26T08:56:51.858Z,23.65
2022-07-26T08:59:22.864Z,23.58
2022-07-26T09:01:54.166Z,23.44
2022-07-26T09:04:31.578Z,23.29
2022-07-26T09:07:03.719Z,23.08
2022-07-26T09:09:33.763Z,23.02
2022-07-26T09:12:14.823Z,22.99
2022-07-26T09:14:46.669Z,22.77
2022-07-26T09:17:15.781Z,22.63
2022-07-26T09:19:44.204Z,22.53
2022-07-26T09:22:13.993Z,22.49
2022-07-26T09:24:43.241Z,22.50
2022-07-26T09:27:12.587Z,22.60
2022-07-26T09:29:46.602Z,22.68
2022-07-26T09:32:20.162Z,22.64
2022-07-26T09:34:52.914Z,22.77
2022-07-26T09:37:34.885Z,23.12
2022-07-26T09:40:05.993Z,23.30
2022-07-26T09:42:33.885Z,23.51
2022-07-26T09:45:03.254Z,23.84
2022-07-26T09:47:38.145Z,24.18
2022-07-26T09:50:16.963Z,24.59
2022-07-26T09:53:02.190Z,25.14
2022-07-26T09:55:40.837Z,25.63
2022-07-26T09:58:14.021Z,25.81
2022-07-26T10:00:44.117Z,25.84
2022-07-26T10:03:12.724Z,25.82
2022-07-26T10:05:40.573Z,25.89
2022-07-26T10:08:08.971Z,26.25
2022-07-26T10:10:42.133Z,26.70
2022-07-26T10:13:11.107Z,27.00
2022-07-26T10:15:41.698Z,27.49
2022-07-26T10:18:32.762Z,27.94
2022-07-26T10:21:00.489Z,28.12
2022-07-26T10:23:44.048Z,28.05
2022-07-26T10:26:14.783Z,28.18
2022-07-26T10:28:43.054Z,28.51
2022-07-26T10:31:31.234Z,28.99
2022-07-26T10:34:02.633Z,29.25
2022-07-26T10:36:36.175Z,29.43
2022-07-26T10:39:14.288Z,29.64
2022-07-26T10:41:45.916Z,29.99
2022-07-26T10:44:25.684Z,30.32
2022-07-26T10:47:01.731Z,30.52
2022-07-26T10:49:36.373Z,30.54
2022-07-26T10:52:16.226Z,30.53
2022-07-26T10:55:20.727Z,30.66
2022-07-26T10:57:50.217Z,30.70
2022-07-26T11:00:21.609Z,30.73
2022-07-26T11:02:53.663Z,30.61
2022-07-26T11:05:27.863Z,30.46
2022-07-26T11:07:59.661Z,30.11
2022-07-26T11:10:28.744Z,29.74
2022-07-26T11:13:12.725Z,29.68
2022-07-26T11:15:42.685Z,29.80
2022-07-26T11:18:14.641Z,29.68
2022-07-26T11:20:46.987Z,29.59
2022-07-26T11:23:26.010Z,29.31
2022-07-26T11:26:15.439Z,29.08
2022-07-26T11:28:51.289Z,29.10
2022-07-26T11:31:20.154Z,29.14
2022-07-26T11:33:51.018Z,29.32
2022-07-26T11:36:32.051Z,29.34
2022-07-26T11:39:01.150Z,29.39
2022-07-26T11:41:34.279Z,29.31
2022-07-26T11:44:03.730Z,29.34
2022-07-26T11:46:37.577Z,29.62
2022-07-26T11:49:13.040Z,29.78
2022-07-26T11:51:49.096Z,29.95
2022-07-26T11:54:17.055Z,29.74
2022-07-26T11:56:51.690Z,29.36
2022-07-26T11:59:19.872Z,29.03
2022-07-26T12:01:49.534Z,28.67
2022-07-26T12:04:23.769Z,28.28
2022-07-26T12:06:53.632Z,28.02
2022-07-26T12:09:32.202Z,27.88
2022-07-26T12:12:00.990Z,28.04
2022-07-26T12:14:29.630Z,28.28
2022-07-26T12:16:59.418Z,28.43
2022-07-26T12:19:30.308Z,28.50
2022-07-26T12:22:12.289Z,28.39
2022-07-26T12:24:44.921Z,28.37
2022-07-26T12:27:15.907Z,28.38
2022-07-26T12:29:45.174Z,28.42
2022-07-26T12:32:16.307Z,28.44
2022-07-26T12:34:55.117Z,28.46
2022-07-26T12:37:32.580Z,28.63
2022-07-26T12:40:08.782Z,28.55
2022-07-26T12:42:37.087Z,28.30
2022-07-26T12:45:06.485Z,27.96
2022-07-26T12:47:34.479Z,27.82
2022-07-26T12:50:03.582Z,27.73
2022-07-26T12:52:33.732Z,27.61
2022-07-26T12:55:01.961Z,27.52
2022-07-26T12:57:29.859Z,27.51
2022-07-26T12:59:59.590Z,27.60
2022-07-26T13:02:27.553Z,27.49
2022-07-26T13:04:59.872Z,27.24
2022-07-26T13:07:28.538Z,26.99
2022-07-26T13:10:30.029Z,26.79
2022-07-26T13:12:46.094Z,26.54
2022-07-26T13:15:13.856Z,26.47
2022-07-26T13:17:41.798Z,26.35
2022-07-26T13:20:10.262Z,26.29
2022-07-26T13:22:38.022Z,26.15
2022-07-26T13:25:08.569Z,26.05
2022-07-26T13:27:39.170Z,25.96
2022-07-26T13:30:09.961Z,25.86
2022-07-26T13:32:37.682Z,25.87
2022-07-26T13:35:05.769Z,25.97
2022-07-26T13:37:33.533Z,26.00
2022-07-26T13:40:01.301Z,26.00
2022-07-26T13:42:30.516Z,25.91
2022-07-26T13:44:58.342Z,25.84
2022-07-26T13:47:26.095Z,25.69
2022-07-26T13:49:53.887Z,25.59
2022-07-26T13:52:21.651Z,25.66
2022-07-26T13:54:49.369Z,25.64
2022-07-26T13:57:17.086Z,25.51
2022-07-26T13:59:46.181Z,25.40
2022-07-26T14:02:14.112Z,25.32
2022-07-26T14:04:42.595Z,25.23
2022-07-26T14:07:10.408Z,25.15
2022-07-26T14:09:38.242Z,25.13
2022-07-26T14:12:06.681Z,25.16
2022-07-26T14:14:37.601Z,25.13
2022-07-26T14:17:06.807Z,25.01
2022-07-26T14:19:36.616Z,24.97
2022-07-26T14:22:05.190Z,25.00
2022-07-26T14:24:33.191Z,25.11
2022-07-26T14:27:02.818Z,25.17
2022-07-26T14:29:30.836Z,25.12
2022-07-26T14:31:58.782Z,25.06
2022-07-26T14:34:27.940Z,24.95
2022-07-26T14:36:55.754Z,24.81
2022-07-26T14:39:23.654Z,24.69
2022-07-26T14:41:51.596Z,24.61
2022-07-26T14:44:19.474Z,24.54
2022-07-26T14:46:47.540Z,24.43
2022-07-26T14:49:15.292Z,24.26
2022-07-26T14:51:44.703Z,24.16
2022-07-26T14:57:00.015Z,23.98
2022-07-26T14:59:27.771Z,23.92
2022-07-26T15:01:55.575Z,23.87
2022-07-26T15:04:23.382Z,23.82
2022-07-26T15:06:52.513Z,23.73
2022-07-26T15:09:20.257Z,23.63
2022-07-26T15:11:49.362Z,23.53
2022-07-26T15:14:17.150Z,23.40
2022-07-26T15:16:44.982Z,23.27
2022-07-26T15:19:12.725Z,23.23
2022-07-26T15:21:40.511Z,23.16
2022-07-26T15:24:10.480Z,23.13
2022-07-26T15:26:38.671Z,23.10
2022-07-26T15:29:06.440Z,23.00
2022-07-26T15:31:36.736Z,22.91
2022-07-26T15:34:05.590Z,22.81
2022-07-26T15:36:33.306Z,22.82
2022-07-26T15:39:15.579Z,22.87
2022-07-26T15:41:46.087Z,22.81
2022-07-26T15:44:16.222Z,22.75
2022-07-26T15:46:45.711Z,22.65
2022-07-26T15:49:14.630Z,22.57
2022-07-26T15:51:43.976Z,22.56
2022-07-26T15:54:14.611Z,22.52
2022-07-26T15:56:45.358Z,22.48
2022-07-26T15:59:13.579Z,22.42
2022-07-26T16:01:41.393Z,22.36
2022-07-26T16:04:09.540Z,22.25
2022-07-26T16:06:37.547Z,22.14
2022-07-26T16:09:16.769Z,22.05
2022-07-26T16:11:47.171Z,21.89
2022-07-26T16:14:15.131Z,21.82
2022-07-26T16:16:43.000Z,21.75
2022-07-26T16:19:11.416Z,21.71
2022-07-26T16:21:40.441Z,21.78
2022-07-26T16:24:09.829Z,21.80
2022-07-26T16:26:37.985Z,21.76
2022-07-26T16:29:07.268Z,21.76
2022-07-26T16:31:36.656Z,21.73
2022-07-26T16:34:04.497Z,21.70
2022-07-26T16:36:32.236Z,21.66
2022-07-26T16:39:00.027Z,21.70
2022-07-26T16:41:28.991Z,21.70
2022-07-26T16:43:56.911Z,21.65
2022-07-26T16:46:26.456Z,21.62
2022-07-26T16:48:54.333Z,21.51
2022-07-26T16:51:22.181Z,21.39
2022-07-26T16:53:51.647Z,21.32
2022-07-26T16:56:19.591Z,21.24
2022-07-26T16:58:47.407Z,21.20
2022-07-26T17:01:16.578Z,21.05
2022-07-26T17:03:45.874Z,20.96
2022-07-26T17:06:13.705Z,20.88
2022-07-26T17:08:41.977Z,20.83
2022-07-26T17:11:10.047Z,20.79
2022-07-26T17:13:37.861Z,20.80
2022-07-26T17:16:06.210Z,20.75
2022-07-26T17:18:34.031Z,20.66
2022-07-26T17:21:03.231Z,20.60
2022-07-26T17:23:31.032Z,20.50
2022-07-26T17:25:58.783Z,20.48
2022-07-26T17:28:26.576Z,20.48
2022-07-26T17:30:54.323Z,20.42
2022-07-26T17:33:22.274Z,20.32
2022-07-26T17:35:50.321Z,20.23
2022-07-26T17:38:19.442Z,20.22
2022-07-26T17:40:47.286Z,20.20
2022-07-26T17:43:15.049Z,20.18
2022-07-26T17:45:43.157Z,20.14
2022-07-26T17:48:11.046Z,20.11
2022-07-26T17:50:39.091Z,20.10
2022-07-26T17:53:06.982Z,20.06
2022-07-26T17:55:36.276Z,20.00
2022-07-26T17:58:04.126Z,19.92
2022-07-26T18:00:31.991Z,19.84
2022-07-26T18:02:59.729Z,19.80
2022-07-26T18:05:34.212Z,19.74
2022-07-26T18:08:05.099Z,19.68
2022-07-26T18:10:33.049Z,19.61
2022-07-26T18:13:02.247Z,19.53
2022-07-26T18:15:30.127Z,19.44
2022-07-26T18:17:57.881Z,19.37
2022-07-26T18:20:25.762Z,19.33
2022-07-26T18:22:54.614Z,19.25
2022-07-26T18:25:22.432Z,19.16
2022-07-26T18:27:50.518Z,19.11
2022-07-26T18:30:19.657Z,19.05
2022-07-26T18:32:47.376Z,19.01
2022-07-26T18:35:15.141Z,18.96
2022-07-26T18:37:42.892Z,18.92
2022-07-26T18:40:11.192Z,18.85
2022-07-26T18:42:38.946Z,18.77
2022-07-26T18:45:08.049Z,18.68
2022-07-26T18:47:37.177Z,18.62
2022-07-26T18:50:05.989Z,18.56
2022-07-26T18:52:33.758Z,18.50
2022-07-26T18:55:06.747Z,18.47
2022-07-26T18:57:35.175Z,18.40
2022-07-26T19:00:03.005Z,18.31
2022-07-26T19:02:30.833Z,18.21
2022-07-26T19:04:59.980Z,18.15
2022-07-26T19:07:28.022Z,18.09
2022-07-26T19:09:58.559Z,18.06
2022-07-26T19:12:27.674Z,17.97
2022-07-26T19:14:55.861Z,17.87
2022-07-26T19:17:23.776Z,17.81
2022-07-26T19:19:51.515Z,17.79
2022-07-26T19:22:21.236Z,17.76
2022-07-26T19:24:48.982Z,17.72
2022-07-26T19:27:16.766Z,17.68
2022-07-26T19:29:44.632Z,17.61
2022-07-26T19:32:12.402Z,17.58
2022-07-26T19:34:40.200Z,17.53
2022-07-26T19:37:08.095Z,17.50
2022-07-26T19:39:37.528Z,17.48
2022-07-26T19:42:05.899Z,17.44
2022-07-26T19:44:33.883Z,17.37
2022-07-26T19:47:01.637Z,17.32
2022-07-26T19:49:29.774Z,17.29
2022-07-26T19:51:57.791Z,17.25
2022-07-26T19:54:25.856Z,17.20
2022-07-26T19:56:55.046Z,17.17
2022-07-26T19:59:24.059Z,17.14
2022-07-26T20:01:55.240Z,17.11
2022-07-26T20:04:26.275Z,17.08
2022-07-26T20:06:55.104Z,17.05
2022-07-26T20:09:22.925Z,17.01
2022-07-26T20:11:51.718Z,16.99
2022-07-26T20:14:21.718Z,16.97
2022-07-26T20:16:55.665Z,16.93
2022-07-26T20:19:24.490Z,16.90
2022-07-26T20:21:52.310Z,16.87
2022-07-26T20:24:20.232Z,16.84
2022-07-26T20:26:48.071Z,16.84
2022-07-26T20:29:15.852Z,16.83
2022-07-26T20:31:45.022Z,16.81
2022-07-26T20:34:13.392Z,16.75
2022-07-26T20:36:41.311Z,16.70
2022-07-26T20:39:09.441Z,16.68
2022-07-26T20:41:37.409Z,16.68
2022-07-26T20:44:06.880Z,16.66
2022-07-26T20:46:39.725Z,16.65
2022-07-26T20:49:10.130Z,16.65
2022-07-26T20:51:39.056Z,16.64
2022-07-26T20:54:08.495Z,16.62
2022-07-26T20:56:36.517Z,16.59
2022-07-26T20:59:04.709Z,16.54
2022-07-26T21:01:33.620Z,16.52
2022-07-26T21:04:01.520Z,16.49
2022-07-26T21:06:33.080Z,16.45
2022-07-26T21:09:09.882Z,16.35
2022-07-26T21:11:39.190Z,16.31
2022-07-26T21:14:07.565Z,16.32
2022-07-26T21:16:35.521Z,16.33
2022-07-26T21:19:04.710Z,16.31
2022-07-26T21:21:36.830Z,16.28
2022-07-26T21:24:04.505Z,16.17
2022-07-26T21:26:32.275Z,16.11
2022-07-26T21:29:00.098Z,16.12
2022-07-26T21:31:28.019Z,16.10
2022-07-26T21:33:55.825Z,16.06
2022-07-26T21:36:23.745Z,16.02
2022-07-26T21:38:52.832Z,15.99
2022-07-26T21:41:20.720Z,15.94
2022-07-26T21:43:48.625Z,15.90
2022-07-26T21:46:16.594Z,15.86
2022-07-26T21:48:44.587Z,15.81
2022-07-26T21:51:12.404Z,15.77
2022-07-26T21:53:40.365Z,15.75
2022-07-26T21:56:09.508Z,15.73
2022-07-26T21:58:37.291Z,15.72
2022-07-26T22:01:06.250Z,15.71
2022-07-26T22:03:36.735Z,15.70
2022-07-26T22:06:05.501Z,15.67
2022-07-26T22:08:33.304Z,15.65
2022-07-26T22:11:01.243Z,15.65
2022-07-26T22:13:30.373Z,15.63
2022-07-26T22:15:58.116Z,15.63
2022-07-26T22:18:26.091Z,15.63
2022-07-26T22:20:54.306Z,15.62
2022-07-26T22:23:29.758Z,15.61
2022-07-26T22:25:58.085Z,15.59
2022-07-26T22:28:26.014Z,15.57
2022-07-26T22:30:55.649Z,15.53
2022-07-26T22:33:24.010Z,15.51
2022-07-26T22:35:52.292Z,15.48
2022-07-26T22:38:20.305Z,15.45
2022-07-26T22:40:48.235Z,15.41
2022-07-26T22:43:16.033Z,15.40
2022-07-26T22:45:43.934Z,15.36
2022-07-26T22:48:13.040Z,15.36
2022-07-26T22:50:40.850Z,15.35
2022-07-26T22:53:08.585Z,15.34
2022-07-26T22:55:36.438Z,15.32
2022-07-26T22:58:04.293Z,15.29
2022-07-26T23:00:32.113Z,15.27
2022-07-26T23:02:59.846Z,15.25
2022-07-26T23:05:45.516Z,15.22
2022-07-26T23:08:45.804Z,15.17
2022-07-26T23:11:03.689Z,15.13
2022-07-26T23:13:31.565Z,15.12
2022-07-26T23:16:01.194Z,15.11
2022-07-26T23:18:29.743Z,15.10
2022-07-26T23:20:58.943Z,15.09
2022-07-26T23:23:28.538Z,15.09
2022-07-26T23:25:58.995Z,15.09
2022-07-26T23:28:37.117Z,15.11
2022-07-26T23:31:06.986Z,15.11
2022-07-26T23:33:52.893Z,15.12
2022-07-26T23:36:27.394Z,15.15
2022-07-26T23:38:56.084Z,15.15
2022-07-26T23:41:24.523Z,15.19
2022-07-26T23:43:53.168Z,15.21
2022-07-26T23:46:21.195Z,15.24
2022-07-26T23:48:49.269Z,15.26
2022-07-26T23:51:17.092Z,15.28
2022-07-26T23:53:46.546Z,15.31
2022-07-26T23:56:14.321Z,15.28
2022-07-26T23:58:42.423Z,15.27
